createdAt,value
2023-05-19T00:00:02.066Z,5.82
2023-05-19T00:00:15.393Z,5.53
2023-05-19T00:00:28.570Z,5.45
2023-05-19T00:00:40.611Z,6.40
2023-05-19T00:00:52.750Z,6.13
2023-05-19T00:01:05.457Z,5.00
2023-05-19T00:01:17.703Z,5.38
2023-05-19T00:01:31.009Z,5.97
2023-05-19T00:01:43.994Z,6.38
2023-05-19T00:01:56.504Z,6.43
2023-05-19T00:02:09.440Z,6.90
2023-05-19T00:02:21.819Z,6.60
2023-05-19T00:02:34.155Z,6.75
2023-05-19T00:02:47.498Z,6.10
2023-05-19T00:03:00.559Z,6.50
2023-05-19T00:03:13.117Z,6.43
2023-05-19T00:03:25.597Z,6.05
2023-05-19T00:03:40.610Z,6.80
2023-05-19T00:03:54.193Z,6.95
2023-05-19T00:04:07.080Z,6.75
2023-05-19T00:04:21.225Z,5.97
2023-05-19T00:04:33.644Z,5.73
2023-05-19T00:04:47.961Z,6.32
2023-05-19T00:05:00.924Z,7.10
2023-05-19T00:05:18.475Z,7.22
2023-05-19T00:05:30.634Z,7.07
2023-05-19T00:05:45.525Z,7.20
2023-05-19T00:05:58.997Z,5.78
2023-05-19T00:06:10.846Z,4.63
2023-05-19T00:06:25.857Z,4.63
2023-05-19T00:06:38.385Z,5.05
2023-05-19T00:06:51.567Z,5.85
2023-05-19T00:07:03.429Z,6.47
2023-05-19T00:07:17.878Z,6.78
2023-05-19T00:07:31.534Z,6.30
2023-05-19T00:07:45.056Z,6.53
2023-05-19T00:07:59.758Z,6.20
2023-05-19T00:08:11.594Z,5.43
2023-05-19T00:08:24.576Z,5.50
2023-05-19T00:08:38.174Z,6.55
2023-05-19T00:08:50.344Z,6.00
2023-05-19T00:09:03.404Z,5.75
2023-05-19T00:09:16.479Z,6.28
2023-05-19T00:09:28.921Z,6.47
2023-05-19T00:09:40.988Z,5.75
2023-05-19T00:09:53.055Z,6.07
2023-05-19T00:10:05.773Z,8.15
2023-05-19T00:10:18.669Z,7.80
2023-05-19T00:10:31.646Z,4.78
2023-05-19T00:10:45.413Z,4.93
2023-05-19T00:10:57.868Z,5.43
2023-05-19T00:11:10.266Z,5.75
2023-05-19T00:11:22.830Z,6.18
2023-05-19T00:11:36.150Z,5.75
2023-05-19T00:11:50.509Z,6.38
2023-05-19T00:12:02.573Z,8.00
2023-05-19T00:12:15.383Z,8.15
2023-05-19T00:12:27.358Z,5.90
2023-05-19T00:12:39.374Z,5.63
2023-05-19T00:12:53.762Z,5.55
2023-05-19T00:13:06.093Z,6.30
2023-05-19T00:13:18.191Z,5.47
2023-05-19T00:13:30.519Z,6.32
2023-05-19T00:13:45.407Z,5.90
2023-05-19T00:13:58.411Z,5.63
2023-05-19T00:14:10.948Z,5.60
2023-05-19T00:14:22.908Z,6.13
2023-05-19T00:14:35.017Z,5.60
2023-05-19T00:14:47.160Z,5.38
2023-05-19T00:14:59.208Z,5.20
2023-05-19T00:15:13.332Z,5.30
2023-05-19T00:15:25.671Z,5.70
2023-05-19T00:15:38.020Z,6.15
2023-05-19T00:15:50.992Z,7.10
2023-05-19T00:16:03.306Z,6.20
2023-05-19T00:16:15.528Z,4.73
2023-05-19T00:16:28.847Z,5.65
2023-05-19T00:16:42.280Z,5.45
2023-05-19T00:16:56.046Z,4.70
2023-05-19T00:17:08.769Z,4.63
2023-05-19T00:17:21.181Z,4.65
2023-05-19T00:17:34.370Z,5.65
2023-05-19T00:17:46.417Z,7.30
2023-05-19T00:17:58.801Z,7.82
2023-05-19T00:18:14.004Z,7.20
2023-05-19T00:18:26.636Z,5.65
2023-05-19T00:18:38.264Z,5.30
2023-05-19T00:18:51.821Z,6.00
2023-05-19T00:19:05.225Z,6.05
2023-05-19T00:19:17.663Z,6.03
2023-05-19T00:19:32.136Z,5.40
2023-05-19T00:19:45.096Z,5.03
2023-05-19T00:19:56.833Z,5.80
2023-05-19T00:20:11.959Z,6.40
2023-05-19T00:20:25.050Z,6.50
2023-05-19T00:20:38.027Z,7.07
2023-05-19T00:20:49.945Z,6.43
2023-05-19T00:21:01.647Z,5.63
2023-05-19T00:21:13.362Z,4.88
2023-05-19T00:21:25.065Z,5.55
2023-05-19T00:21:39.142Z,5.68
2023-05-19T00:21:50.878Z,6.38
2023-05-19T00:22:02.569Z,6.47
2023-05-19T00:22:14.728Z,5.75
2023-05-19T00:22:26.399Z,6.10
2023-05-19T00:22:38.073Z,5.68
2023-05-19T00:22:51.098Z,5.05
2023-05-19T00:23:03.757Z,5.50
2023-05-19T00:23:15.388Z,6.82
2023-05-19T00:23:27.057Z,6.57
2023-05-19T00:23:38.690Z,6.63
2023-05-19T00:23:50.523Z,6.07
2023-05-19T00:24:02.239Z,5.85
2023-05-19T00:24:14.006Z,6.43
2023-05-19T00:24:27.009Z,6.68
2023-05-19T00:24:39.090Z,6.10
2023-05-19T00:24:50.751Z,6.60
2023-05-19T00:25:02.392Z,7.20
2023-05-19T00:25:14.144Z,6.88
2023-05-19T00:25:26.030Z,6.75
2023-05-19T00:25:37.729Z,6.15
2023-05-19T00:25:49.391Z,5.57
2023-05-19T00:26:01.042Z,5.28
2023-05-19T00:26:13.773Z,6.50
2023-05-19T00:26:26.945Z,7.15
2023-05-19T00:26:38.991Z,7.45
2023-05-19T00:26:50.917Z,6.47
2023-05-19T00:27:02.675Z,6.15
2023-05-19T00:27:14.365Z,5.15
2023-05-19T00:27:27.031Z,6.07
2023-05-19T00:27:38.672Z,7.43
2023-05-19T00:27:50.527Z,6.90
2023-05-19T00:28:02.991Z,5.40
2023-05-19T00:28:14.740Z,4.50
2023-05-19T00:28:26.431Z,4.93
2023-05-19T00:28:38.097Z,6.70
2023-05-19T00:28:50.230Z,7.53
2023-05-19T00:29:02.912Z,6.32
2023-05-19T00:29:18.413Z,7.20
2023-05-19T00:29:31.209Z,7.32
2023-05-19T00:29:42.859Z,6.70
2023-05-19T00:29:54.535Z,6.40
2023-05-19T00:30:07.928Z,5.43
2023-05-19T00:30:19.694Z,5.13
2023-05-19T00:30:32.131Z,4.90
2023-05-19T00:30:44.916Z,4.95
2023-05-19T00:30:56.720Z,5.45
2023-05-19T00:31:08.552Z,5.10
2023-05-19T00:31:20.210Z,5.70
2023-05-19T00:31:33.913Z,5.55
2023-05-19T00:31:46.217Z,6.27
2023-05-19T00:31:57.999Z,6.07
2023-05-19T00:32:10.208Z,6.63
2023-05-19T00:32:22.985Z,6.55
2023-05-19T00:32:35.113Z,7.20
2023-05-19T00:32:46.835Z,7.13
2023-05-19T00:32:58.684Z,7.28
2023-05-19T00:33:10.461Z,7.10
2023-05-19T00:33:22.444Z,7.47
2023-05-19T00:33:34.301Z,7.90
2023-05-19T00:33:45.921Z,7.95
2023-05-19T00:33:58.511Z,8.20
2023-05-19T00:34:10.142Z,8.95
2023-05-19T00:34:21.808Z,7.93
2023-05-19T00:34:33.502Z,5.47
2023-05-19T00:34:45.175Z,5.32
2023-05-19T00:34:56.965Z,6.25
2023-05-19T00:35:09.420Z,5.68
2023-05-19T00:35:21.677Z,7.18
2023-05-19T00:35:34.836Z,7.28
2023-05-19T00:35:47.434Z,6.95
2023-05-19T00:35:59.048Z,4.65
2023-05-19T00:36:10.734Z,4.68
2023-05-19T00:36:22.484Z,5.60
2023-05-19T00:36:34.081Z,6.60
2023-05-19T00:36:45.690Z,6.43
2023-05-19T00:36:58.314Z,6.28
2023-05-19T00:37:09.898Z,5.13
2023-05-19T00:37:21.854Z,4.63
2023-05-19T00:37:33.453Z,5.35
2023-05-19T00:37:45.118Z,6.10
2023-05-19T00:37:57.184Z,6.38
2023-05-19T00:38:08.850Z,5.55
2023-05-19T00:38:20.528Z,5.57
2023-05-19T00:38:33.596Z,5.32
2023-05-19T00:38:46.203Z,5.80
2023-05-19T00:38:58.209Z,6.57
2023-05-19T00:39:10.039Z,6.05
2023-05-19T00:39:21.685Z,4.85
2023-05-19T00:39:33.292Z,4.97
2023-05-19T00:39:45.008Z,5.00
2023-05-19T00:39:56.670Z,4.75
2023-05-19T00:40:09.701Z,3.95
2023-05-19T00:40:22.498Z,4.60
2023-05-19T00:40:35.487Z,5.40
2023-05-19T00:40:47.601Z,5.53
2023-05-19T00:40:59.351Z,5.45
2023-05-19T00:41:11.044Z,6.63
2023-05-19T00:41:22.915Z,7.32
2023-05-19T00:41:34.569Z,7.47
2023-05-19T00:41:47.237Z,6.40
2023-05-19T00:41:58.891Z,7.32
2023-05-19T00:42:10.568Z,7.03
2023-05-19T00:42:22.301Z,7.70
2023-05-19T00:42:34.060Z,7.20
2023-05-19T00:42:45.840Z,7.18
2023-05-19T00:43:00.646Z,6.22
2023-05-19T00:43:12.499Z,7.82
2023-05-19T00:43:24.174Z,8.05
2023-05-19T00:43:36.842Z,7.13
2023-05-19T00:43:48.538Z,6.80
2023-05-19T00:44:00.294Z,6.13
2023-05-19T00:44:12.023Z,6.05
2023-05-19T00:44:23.645Z,5.43
2023-05-19T00:44:38.264Z,5.65
2023-05-19T00:44:49.988Z,7.57
2023-05-19T00:45:02.889Z,7.40
2023-05-19T00:45:14.591Z,6.88
2023-05-19T00:45:26.347Z,5.93
2023-05-19T00:45:38.092Z,5.35
2023-05-19T00:45:49.813Z,5.18
2023-05-19T00:46:01.622Z,5.60
2023-05-19T00:46:13.340Z,5.45
2023-05-19T00:46:25.254Z,5.47
2023-05-19T00:46:38.646Z,6.22
2023-05-19T00:46:50.598Z,5.95
2023-05-19T00:47:02.762Z,5.72
2023-05-19T00:47:14.503Z,6.25
2023-05-19T00:47:26.233Z,6.75
2023-05-19T00:47:37.983Z,6.97
2023-05-19T00:47:49.841Z,7.38
2023-05-19T00:48:01.673Z,6.60
2023-05-19T00:48:14.378Z,7.00
2023-05-19T00:48:26.478Z,6.13
2023-05-19T00:48:38.351Z,6.10
2023-05-19T00:48:50.046Z,5.32
2023-05-19T00:49:01.691Z,4.65
2023-05-19T00:49:13.404Z,3.60
2023-05-19T00:49:25.126Z,3.80
2023-05-19T00:49:37.749Z,4.53
2023-05-19T00:49:49.423Z,5.40
2023-05-19T00:50:01.065Z,5.82
2023-05-19T00:50:12.731Z,5.93
2023-05-19T00:50:24.411Z,5.55
2023-05-19T00:50:37.434Z,5.97
2023-05-19T00:50:49.584Z,5.70
2023-05-19T00:51:04.504Z,6.47
2023-05-19T00:51:18.079Z,5.88
2023-05-19T00:51:30.084Z,5.97
2023-05-19T00:51:41.791Z,8.73
2023-05-19T00:51:53.524Z,10.48
2023-05-19T00:52:06.420Z,9.80
2023-05-19T00:52:18.117Z,5.90
2023-05-19T00:52:29.844Z,5.57
2023-05-19T00:52:41.592Z,5.35
2023-05-19T00:52:54.356Z,4.63
2023-05-19T00:53:06.088Z,5.30
2023-05-19T00:53:18.322Z,5.78
2023-05-19T00:53:30.299Z,5.25
2023-05-19T00:53:43.877Z,5.47
2023-05-19T00:53:56.664Z,5.45
2023-05-19T00:54:08.479Z,5.97
2023-05-19T00:54:21.925Z,5.38
2023-05-19T00:54:33.991Z,5.57
2023-05-19T00:54:46.034Z,5.40
2023-05-19T00:54:57.779Z,5.95
2023-05-19T00:55:09.879Z,6.07
2023-05-19T00:55:22.791Z,5.80
2023-05-19T00:55:36.817Z,6.15
2023-05-19T00:55:49.848Z,5.90
2023-05-19T00:56:02.301Z,5.82
2023-05-19T00:56:14.594Z,5.90
2023-05-19T00:56:26.637Z,6.35
2023-05-19T00:56:38.311Z,7.80
2023-05-19T00:56:50.009Z,8.60
2023-05-19T00:57:01.702Z,6.95
2023-05-19T00:57:15.858Z,6.38
2023-05-19T00:57:28.159Z,5.80
2023-05-19T00:57:39.939Z,6.30
2023-05-19T00:57:51.613Z,5.80
2023-05-19T00:58:04.747Z,5.32
2023-05-19T00:58:17.132Z,5.68
2023-05-19T00:58:30.365Z,4.82
2023-05-19T00:58:43.095Z,4.93
2023-05-19T00:58:55.060Z,5.30
2023-05-19T00:59:06.831Z,5.90
2023-05-19T00:59:18.525Z,6.03
2023-05-19T00:59:30.546Z,7.15
2023-05-19T00:59:42.471Z,6.43
2023-05-19T00:59:54.245Z,6.22
2023-05-19T01:00:08.308Z,7.00
2023-05-19T01:00:20.110Z,7.38
2023-05-19T01:00:32.109Z,8.55
2023-05-19T01:00:44.286Z,7.53
2023-05-19T01:01:02.899Z,6.65
2023-05-19T01:01:17.086Z,5.57
2023-05-19T01:01:29.965Z,5.07
2023-05-19T01:01:41.756Z,4.88
2023-05-19T01:01:53.553Z,6.32
2023-05-19T01:02:05.369Z,7.07
2023-05-19T01:02:18.050Z,6.97
2023-05-19T01:02:29.961Z,7.40
2023-05-19T01:02:41.823Z,6.78
2023-05-19T01:02:54.328Z,6.05
2023-05-19T01:03:11.134Z,6.63
2023-05-19T01:03:24.101Z,6.93
2023-05-19T01:03:36.335Z,6.13
2023-05-19T01:03:48.301Z,5.90
2023-05-19T01:04:00.380Z,6.97
2023-05-19T01:04:16.967Z,6.90
2023-05-19T01:04:29.748Z,5.68
2023-05-19T01:04:43.793Z,5.00
2023-05-19T01:04:59.304Z,5.40
2023-05-19T01:05:11.512Z,5.60
2023-05-19T01:05:23.213Z,6.13
2023-05-19T01:05:34.898Z,6.90
2023-05-19T01:05:48.024Z,6.20
2023-05-19T01:06:01.759Z,5.88
2023-05-19T01:06:13.641Z,5.95
2023-05-19T01:06:25.524Z,5.78
2023-05-19T01:06:38.661Z,5.70
2023-05-19T01:06:54.794Z,4.93
2023-05-19T01:07:07.103Z,5.07
2023-05-19T01:07:19.916Z,5.68
2023-05-19T01:07:31.674Z,7.15
2023-05-19T01:07:43.461Z,7.07
2023-05-19T01:07:56.509Z,6.18
2023-05-19T01:08:09.368Z,5.22
2023-05-19T01:08:21.145Z,6.40
2023-05-19T01:08:33.143Z,6.35
2023-05-19T01:08:45.117Z,5.65
2023-05-19T01:08:58.108Z,6.60
2023-05-19T01:09:10.700Z,6.07
2023-05-19T01:09:22.864Z,5.70
2023-05-19T01:09:34.561Z,5.15
2023-05-19T01:09:47.257Z,5.35
2023-05-19T01:09:58.946Z,6.85
2023-05-19T01:10:10.992Z,8.52
2023-05-19T01:10:22.655Z,7.95
2023-05-19T01:10:34.508Z,5.72
2023-05-19T01:10:46.324Z,4.43
2023-05-19T01:10:58.173Z,5.40
2023-05-19T01:11:10.907Z,6.35
2023-05-19T01:11:22.572Z,6.45
2023-05-19T01:11:34.180Z,6.10
2023-05-19T01:11:45.834Z,7.18
2023-05-19T01:11:57.541Z,7.70
2023-05-19T01:12:09.430Z,7.32
2023-05-19T01:12:21.121Z,6.22
2023-05-19T01:12:32.867Z,6.95
2023-05-19T01:12:44.646Z,7.20
2023-05-19T01:12:57.360Z,6.57
2023-05-19T01:13:09.541Z,5.82
2023-05-19T01:13:21.189Z,6.13
2023-05-19T01:13:33.347Z,6.47
2023-05-19T01:13:45.632Z,6.45
2023-05-19T01:13:57.234Z,5.68
2023-05-19T01:14:09.085Z,5.82
2023-05-19T01:14:21.829Z,5.10
2023-05-19T01:14:33.584Z,5.07
2023-05-19T01:14:45.305Z,5.60
2023-05-19T01:14:58.283Z,6.32
2023-05-19T01:15:11.246Z,6.00
2023-05-19T01:15:23.787Z,5.40
2023-05-19T01:15:56.707Z,6.22
2023-05-19T01:16:13.673Z,7.15
2023-05-19T01:16:31.201Z,5.97
2023-05-19T01:16:47.036Z,6.18
2023-05-19T01:17:05.534Z,7.80
2023-05-19T01:17:23.165Z,5.78
2023-05-19T01:17:39.120Z,6.22
2023-05-19T01:17:55.621Z,7.03
2023-05-19T01:18:11.558Z,5.90
2023-05-19T01:18:28.349Z,6.18
2023-05-19T01:18:47.813Z,7.15
2023-05-19T01:19:02.282Z,4.97
2023-05-19T01:19:25.365Z,4.82
2023-05-19T01:19:51.115Z,4.28
2023-05-19T01:20:08.011Z,6.70
2023-05-19T01:20:22.799Z,7.17
2023-05-19T01:20:38.893Z,7.03
2023-05-19T01:20:59.130Z,6.72
2023-05-19T01:21:26.109Z,6.65
2023-05-19T01:22:12.847Z,5.40
2023-05-19T01:22:36.850Z,5.97
2023-05-19T01:23:21.434Z,5.75
2023-05-19T01:23:36.565Z,5.72
2023-05-19T01:23:54.187Z,6.10
2023-05-19T01:24:22.779Z,6.03
2023-05-19T01:24:46.822Z,5.60
2023-05-19T01:25:10.363Z,5.63
2023-05-19T01:25:53.971Z,6.00
2023-05-19T01:26:48.322Z,7.50
2023-05-19T01:27:18.614Z,6.63
2023-05-19T01:27:43.161Z,6.18
2023-05-19T01:28:16.358Z,5.32
2023-05-19T01:28:37.991Z,6.45
2023-05-19T01:29:25.012Z,9.10
2023-05-19T01:29:42.962Z,6.80
2023-05-19T01:30:25.317Z,6.70
2023-05-19T01:30:38.949Z,7.10
2023-05-19T01:30:52.870Z,6.10
2023-05-19T01:31:07.331Z,6.22
2023-05-19T01:31:23.794Z,4.93
2023-05-19T01:31:37.200Z,5.60
2023-05-19T01:31:50.418Z,6.32
2023-05-19T01:32:04.878Z,6.80
2023-05-19T01:32:18.630Z,6.40
2023-05-19T01:32:32.061Z,7.07
2023-05-19T01:32:45.306Z,7.53
2023-05-19T01:32:59.682Z,6.50
2023-05-19T01:33:14.194Z,7.05
2023-05-19T01:33:27.252Z,6.93
2023-05-19T01:33:40.270Z,6.05
2023-05-19T01:33:54.109Z,6.53
2023-05-19T01:34:06.671Z,6.75
2023-05-19T01:34:19.746Z,5.15
2023-05-19T01:34:31.569Z,5.30
2023-05-19T01:34:44.785Z,5.13
2023-05-19T01:34:57.249Z,4.82
2023-05-19T01:35:09.726Z,5.15
2023-05-19T01:35:23.751Z,5.40
2023-05-19T01:35:37.333Z,5.93
2023-05-19T01:35:49.906Z,5.70
2023-05-19T01:36:03.587Z,5.47
2023-05-19T01:36:15.649Z,5.75
2023-05-19T01:36:27.631Z,5.20
2023-05-19T01:36:41.993Z,5.40
2023-05-19T01:36:55.792Z,5.70
2023-05-19T01:37:08.226Z,5.97
2023-05-19T01:37:21.707Z,6.18
2023-05-19T01:37:34.161Z,7.68
2023-05-19T01:37:46.384Z,7.38
2023-05-19T01:37:59.583Z,5.72
2023-05-19T01:38:13.265Z,5.68
2023-05-19T01:38:25.371Z,5.80
2023-05-19T01:38:38.431Z,4.97
2023-05-19T01:38:52.261Z,6.07
2023-05-19T01:39:04.219Z,6.75
2023-05-19T01:39:16.144Z,5.47
2023-05-19T01:39:28.635Z,5.30
2023-05-19T01:39:40.658Z,5.90
2023-05-19T01:39:53.455Z,6.32
2023-05-19T01:40:06.556Z,7.20
2023-05-19T01:40:18.741Z,6.18
2023-05-19T01:40:31.331Z,5.53
2023-05-19T01:40:44.311Z,5.82
2023-05-19T01:40:57.560Z,5.90
2023-05-19T01:41:09.983Z,5.60
2023-05-19T01:41:22.694Z,5.38
2023-05-19T01:41:35.477Z,6.38
2023-05-19T01:41:47.692Z,7.80
2023-05-19T01:42:00.055Z,7.25
2023-05-19T01:42:12.283Z,6.80
2023-05-19T01:42:24.108Z,6.40
2023-05-19T01:42:39.861Z,6.90
2023-05-19T01:42:54.645Z,7.00
2023-05-19T01:43:09.395Z,6.28
2023-05-19T01:43:22.762Z,5.30
2023-05-19T01:43:36.212Z,4.93
2023-05-19T01:43:48.445Z,5.97
2023-05-19T01:44:00.484Z,6.20
2023-05-19T01:44:12.420Z,5.93
2023-05-19T01:44:24.281Z,5.20
2023-05-19T01:44:36.501Z,5.35
2023-05-19T01:44:48.558Z,6.05
2023-05-19T01:45:01.309Z,5.00
2023-05-19T01:45:14.291Z,6.97
2023-05-19T01:45:28.721Z,6.63
2023-05-19T01:45:40.741Z,5.10
2023-05-19T01:45:53.310Z,4.82
2023-05-19T01:46:05.695Z,5.13
2023-05-19T01:46:17.906Z,5.63
2023-05-19T01:46:29.719Z,7.80
2023-05-19T01:46:42.964Z,8.52
2023-05-19T01:46:54.895Z,8.02
2023-05-19T01:47:07.219Z,6.85
2023-05-19T01:47:19.140Z,6.15
2023-05-19T01:47:30.976Z,5.95
2023-05-19T01:47:44.626Z,6.13
2023-05-19T01:47:58.296Z,5.82
2023-05-19T01:48:12.078Z,6.80
2023-05-19T01:48:24.031Z,6.53
2023-05-19T01:48:36.094Z,6.28
2023-05-19T01:48:48.085Z,5.32
2023-05-19T01:49:00.381Z,5.22
2023-05-19T01:49:12.650Z,5.47
2023-05-19T01:49:24.396Z,6.03
2023-05-19T01:49:37.213Z,6.72
2023-05-19T01:49:48.994Z,6.13
2023-05-19T01:50:00.959Z,5.43
2023-05-19T01:50:12.783Z,5.30
2023-05-19T01:50:24.738Z,5.45
2023-05-19T01:50:36.437Z,5.43
2023-05-19T01:50:48.280Z,5.57
2023-05-19T01:51:00.140Z,5.45
2023-05-19T01:51:12.878Z,5.93
2023-05-19T01:51:24.572Z,6.35
2023-05-19T01:51:36.364Z,5.85
2023-05-19T01:51:49.442Z,6.22
2023-05-19T01:52:01.165Z,5.85
2023-05-19T01:52:12.876Z,7.07
2023-05-19T01:52:24.666Z,7.75
2023-05-19T01:52:36.331Z,7.50
2023-05-19T01:52:49.156Z,6.85
2023-05-19T01:53:01.524Z,6.60
2023-05-19T01:53:13.492Z,6.57
2023-05-19T01:53:25.777Z,7.30
2023-05-19T01:53:37.823Z,8.48
2023-05-19T01:53:49.667Z,9.50
2023-05-19T01:54:01.497Z,8.77
2023-05-19T01:54:13.167Z,7.70
2023-05-19T01:54:25.845Z,8.32
2023-05-19T01:54:38.040Z,8.25
2023-05-19T01:54:49.787Z,9.25
2023-05-19T01:55:01.497Z,8.45
2023-05-19T01:55:13.243Z,7.20
2023-05-19T01:55:25.088Z,6.70
2023-05-19T01:55:43.228Z,6.90
2023-05-19T01:55:56.529Z,6.80
2023-05-19T01:56:09.342Z,6.65
2023-05-19T01:56:25.425Z,6.70
2023-05-19T01:56:41.728Z,7.15
2023-05-19T01:57:02.914Z,6.18
2023-05-19T01:57:22.872Z,7.35
2023-05-19T01:57:44.108Z,7.75
2023-05-19T01:58:03.924Z,5.75
2023-05-19T01:58:19.209Z,6.57
2023-05-19T01:58:36.652Z,7.32
2023-05-19T01:58:53.791Z,8.50
2023-05-19T01:59:24.204Z,7.82
2023-05-19T01:59:43.647Z,5.80
2023-05-19T02:00:05.441Z,5.63
2023-05-19T02:00:24.284Z,6.07
2023-05-19T02:00:45.631Z,6.72
2023-05-19T02:01:02.963Z,6.50
2023-05-19T02:01:23.336Z,6.18
2023-05-19T02:01:42.126Z,5.80
2023-05-19T02:01:57.420Z,5.90
2023-05-19T02:02:16.031Z,7.00
2023-05-19T02:02:34.853Z,6.35
2023-05-19T02:02:56.584Z,6.47
2023-05-19T02:03:18.434Z,6.63
2023-05-19T02:03:42.462Z,5.97
2023-05-19T02:04:06.200Z,6.32
2023-05-19T02:04:25.436Z,5.70
2023-05-19T02:04:42.259Z,6.43
2023-05-19T02:04:59.527Z,7.05
2023-05-19T02:05:17.024Z,5.82
2023-05-19T02:05:34.081Z,7.47
2023-05-19T02:05:53.510Z,7.03
2023-05-19T02:06:15.067Z,6.63
2023-05-19T02:06:33.218Z,6.18
2023-05-19T02:06:48.990Z,4.80
2023-05-19T02:07:03.976Z,4.80
2023-05-19T02:07:20.247Z,5.60
2023-05-19T02:07:40.712Z,6.50
2023-05-19T02:07:58.712Z,6.65
2023-05-19T02:08:14.718Z,6.90
2023-05-19T02:08:31.449Z,7.95
2023-05-19T02:08:44.798Z,6.38
2023-05-19T02:08:58.736Z,4.45
2023-05-19T02:09:16.115Z,4.88
2023-05-19T02:09:35.427Z,7.38
2023-05-19T02:09:52.385Z,6.80
2023-05-19T02:10:09.151Z,6.55
2023-05-19T02:10:25.839Z,6.80
2023-05-19T02:10:38.824Z,6.38
2023-05-19T02:10:52.164Z,6.93
2023-05-19T02:11:08.277Z,6.85
2023-05-19T02:11:23.328Z,6.40
2023-05-19T02:11:39.765Z,7.22
2023-05-19T02:11:55.307Z,6.95
2023-05-19T02:12:12.171Z,7.18
2023-05-19T02:12:28.147Z,6.45
2023-05-19T02:12:40.975Z,5.03
2023-05-19T02:12:54.276Z,5.57
2023-05-19T02:13:08.237Z,6.43
2023-05-19T02:13:22.006Z,5.75
2023-05-19T02:13:37.500Z,6.32
2023-05-19T02:13:51.112Z,6.22
2023-05-19T02:14:04.523Z,6.25
2023-05-19T02:14:19.986Z,6.13
2023-05-19T02:14:37.857Z,5.80
2023-05-19T02:14:51.981Z,5.57
2023-05-19T02:15:07.463Z,5.03
2023-05-19T02:15:22.370Z,4.75
2023-05-19T02:15:39.525Z,5.28
2023-05-19T02:15:52.447Z,6.00
2023-05-19T02:16:06.061Z,5.07
2023-05-19T02:16:18.155Z,5.10
2023-05-19T02:16:30.377Z,6.07
2023-05-19T02:16:46.321Z,6.13
2023-05-19T02:16:58.546Z,4.95
2023-05-19T02:17:11.961Z,5.18
2023-05-19T02:17:23.931Z,5.75
2023-05-19T02:17:40.142Z,6.32
2023-05-19T02:17:54.511Z,7.60
2023-05-19T02:18:06.554Z,6.43
2023-05-19T02:18:20.424Z,5.55
2023-05-19T02:18:33.264Z,6.28
2023-05-19T02:18:46.273Z,6.68
2023-05-19T02:18:59.578Z,7.72
2023-05-19T02:19:20.765Z,7.97
2023-05-19T02:19:34.365Z,6.45
2023-05-19T02:19:46.540Z,6.07
2023-05-19T02:19:59.230Z,6.20
2023-05-19T02:20:11.881Z,6.47
2023-05-19T02:20:23.742Z,5.72
2023-05-19T02:20:35.548Z,5.57
2023-05-19T02:20:47.373Z,5.28
2023-05-19T02:20:59.266Z,5.63
2023-05-19T02:21:13.414Z,7.00
2023-05-19T02:21:26.505Z,7.18
2023-05-19T02:21:38.402Z,5.90
2023-05-19T02:21:50.197Z,5.63
2023-05-19T02:22:02.039Z,4.65
2023-05-19T02:22:13.959Z,5.78
2023-05-19T02:22:26.258Z,7.55
2023-05-19T02:22:38.153Z,6.97
2023-05-19T02:22:49.949Z,6.65
2023-05-19T02:23:02.668Z,6.82
2023-05-19T02:23:14.649Z,6.25
2023-05-19T02:23:26.476Z,5.78
2023-05-19T02:23:38.392Z,6.18
2023-05-19T02:23:51.076Z,7.72
2023-05-19T02:24:03.235Z,8.60
2023-05-19T02:24:15.075Z,7.00
2023-05-19T02:24:28.082Z,6.75
2023-05-19T02:24:41.400Z,6.00
2023-05-19T02:24:53.158Z,6.32
2023-05-19T02:25:05.638Z,7.03
2023-05-19T02:25:17.546Z,6.82
2023-05-19T02:25:29.306Z,6.15
2023-05-19T02:25:41.095Z,5.57
2023-05-19T02:25:53.006Z,4.80
2023-05-19T02:26:05.108Z,5.07
2023-05-19T02:26:16.922Z,6.07
2023-05-19T02:26:29.679Z,6.72
2023-05-19T02:26:41.450Z,7.85
2023-05-19T02:26:54.113Z,6.80
2023-05-19T02:27:06.433Z,5.75
2023-05-19T02:27:18.474Z,6.82
2023-05-19T02:27:30.942Z,7.88
2023-05-19T02:27:42.889Z,7.93
2023-05-19T02:27:55.165Z,6.78
2023-05-19T02:28:06.979Z,5.38
2023-05-19T02:28:20.002Z,4.78
2023-05-19T02:28:31.812Z,6.32
2023-05-19T02:28:43.558Z,7.45
2023-05-19T02:28:55.359Z,7.55
2023-05-19T02:29:07.133Z,5.18
2023-05-19T02:29:19.268Z,6.18
2023-05-19T02:29:31.148Z,6.72
2023-05-19T02:29:43.352Z,7.13
2023-05-19T02:29:56.311Z,6.72
2023-05-19T02:30:09.297Z,6.53
2023-05-19T02:30:20.960Z,6.15
2023-05-19T02:30:32.888Z,6.28
2023-05-19T02:30:46.327Z,5.57
2023-05-19T02:30:57.968Z,5.03
2023-05-19T02:31:10.113Z,4.88
2023-05-19T02:31:22.704Z,4.85
2023-05-19T02:31:34.393Z,4.80
2023-05-19T02:31:46.213Z,5.28
2023-05-19T02:31:58.605Z,6.00
2023-05-19T02:32:11.215Z,6.90
2023-05-19T02:32:23.089Z,7.45
2023-05-19T02:32:34.809Z,8.10
2023-05-19T02:32:46.816Z,7.97
2023-05-19T02:32:59.578Z,7.75
2023-05-19T02:33:11.504Z,6.38
2023-05-19T02:33:26.002Z,6.35
2023-05-19T02:33:37.736Z,6.20
2023-05-19T02:33:49.398Z,6.05
2023-05-19T02:34:01.223Z,6.10
2023-05-19T02:34:12.945Z,5.82
2023-05-19T02:34:25.543Z,6.07
2023-05-19T02:34:37.404Z,6.35
2023-05-19T02:34:49.047Z,6.68
2023-05-19T02:35:00.717Z,6.55
2023-05-19T02:35:12.477Z,6.78
2023-05-19T02:35:24.146Z,6.55
2023-05-19T02:35:35.770Z,6.88
2023-05-19T02:35:48.459Z,5.25
2023-05-19T02:36:00.210Z,5.63
2023-05-19T02:36:14.396Z,6.68
2023-05-19T02:36:26.545Z,6.43
2023-05-19T02:36:40.967Z,5.22
2023-05-19T02:36:52.654Z,6.32
2023-05-19T02:37:04.762Z,6.50
2023-05-19T02:37:16.878Z,6.25
2023-05-19T02:37:29.216Z,6.43
2023-05-19T02:37:41.869Z,7.47
2023-05-19T02:37:54.075Z,7.72
2023-05-19T02:38:05.740Z,6.50
2023-05-19T02:38:18.102Z,7.18
2023-05-19T02:38:29.765Z,6.18
2023-05-19T02:38:41.358Z,5.63
2023-05-19T02:38:53.119Z,6.47
2023-05-19T02:39:04.766Z,7.47
2023-05-19T02:39:17.576Z,6.00
2023-05-19T02:39:30.985Z,5.68
2023-05-19T02:39:42.851Z,5.32
2023-05-19T02:39:55.290Z,5.65
2023-05-19T02:40:08.239Z,5.60
2023-05-19T02:40:20.366Z,5.78
2023-05-19T02:40:32.094Z,5.63
2023-05-19T02:40:44.886Z,6.35
2023-05-19T02:40:56.950Z,6.57
2023-05-19T02:41:08.547Z,5.60
2023-05-19T02:41:21.916Z,7.57
2023-05-19T02:41:33.508Z,7.25
2023-05-19T02:41:45.258Z,7.38
2023-05-19T02:41:56.898Z,5.85
2023-05-19T02:42:08.634Z,4.97
2023-05-19T02:42:21.265Z,5.35
2023-05-19T02:42:32.879Z,5.95
2023-05-19T02:42:44.579Z,7.50
2023-05-19T02:42:56.262Z,8.43
2023-05-19T02:43:08.055Z,7.97
2023-05-19T02:43:19.754Z,7.75
2023-05-19T02:43:31.415Z,8.15
2023-05-19T02:43:44.002Z,7.65
2023-05-19T02:43:55.683Z,6.63
2023-05-19T02:44:07.519Z,4.80
2023-05-19T02:44:19.106Z,5.55
2023-05-19T02:44:30.875Z,6.40
2023-05-19T02:44:42.533Z,7.03
2023-05-19T02:44:54.755Z,6.38
2023-05-19T02:45:07.374Z,6.43
2023-05-19T02:45:19.022Z,6.38
2023-05-19T02:45:31.611Z,5.93
2023-05-19T02:45:43.411Z,6.43
2023-05-19T02:45:56.408Z,5.70
2023-05-19T02:46:08.096Z,5.57
2023-05-19T02:46:20.310Z,5.22
2023-05-19T02:46:32.134Z,5.43
2023-05-19T02:46:43.904Z,5.32
2023-05-19T02:46:56.611Z,5.88
2023-05-19T02:47:08.277Z,5.97
2023-05-19T02:47:19.944Z,5.95
2023-05-19T02:47:31.691Z,6.03
2023-05-19T02:47:43.502Z,6.05
2023-05-19T02:47:55.233Z,5.78
2023-05-19T02:48:06.957Z,4.97
2023-05-19T02:48:18.645Z,4.70
2023-05-19T02:48:30.248Z,6.22
2023-05-19T02:48:41.894Z,8.07
2023-05-19T02:48:54.600Z,8.20
2023-05-19T02:49:06.532Z,7.60
2023-05-19T02:49:18.195Z,6.97
2023-05-19T02:49:31.098Z,6.20
2023-05-19T02:49:44.071Z,7.10
2023-05-19T02:49:55.856Z,7.80
2023-05-19T02:50:08.698Z,6.15
2023-05-19T02:50:20.447Z,5.35
2023-05-19T02:50:32.239Z,5.60
2023-05-19T02:50:44.009Z,6.95
2023-05-19T02:50:56.616Z,7.22
2023-05-19T02:51:08.264Z,7.03
2023-05-19T02:51:19.900Z,7.85
2023-05-19T02:51:31.507Z,7.50
2023-05-19T02:51:43.148Z,7.07
2023-05-19T02:51:54.762Z,5.65
2023-05-19T02:52:06.981Z,7.00
2023-05-19T02:52:18.673Z,7.35
2023-05-19T02:52:30.439Z,6.95
2023-05-19T02:52:42.162Z,6.47
2023-05-19T02:52:53.955Z,5.53
2023-05-19T02:53:06.579Z,5.30
2023-05-19T02:53:18.253Z,7.07
2023-05-19T02:53:32.042Z,7.28
2023-05-19T02:53:43.939Z,8.40
2023-05-19T02:53:55.625Z,7.68
2023-05-19T02:54:07.320Z,5.70
2023-05-19T02:54:18.934Z,5.97
2023-05-19T02:54:31.724Z,6.35
2023-05-19T02:54:43.361Z,6.15
2023-05-19T02:54:55.032Z,5.85
2023-05-19T02:55:07.340Z,6.38
2023-05-19T02:55:19.100Z,6.55
2023-05-19T02:55:30.805Z,5.50
2023-05-19T02:55:42.791Z,6.15
2023-05-19T02:55:54.442Z,6.90
2023-05-19T02:56:06.519Z,6.20
2023-05-19T02:56:19.120Z,5.55
2023-05-19T02:56:30.855Z,6.43
2023-05-19T02:56:42.525Z,6.10
2023-05-19T02:56:54.148Z,5.85
2023-05-19T02:57:06.646Z,6.03
2023-05-19T02:57:18.294Z,6.40
2023-05-19T02:57:31.653Z,7.13
2023-05-19T02:57:43.599Z,6.90
2023-05-19T02:57:55.660Z,8.15
2023-05-19T02:58:07.416Z,7.40
2023-05-19T02:58:20.693Z,8.55
2023-05-19T02:58:32.321Z,8.82
2023-05-19T02:58:44.105Z,7.95